Kruisland, Netherlands
Current Conditions -  °F | °C
As of 11:25 AM on Saturday 25 Oct 2014 (Local Time) from EHWO Reporting Station
Haze Haze  
Wind Chill: 55°   Ceiling: 300
Heat Index: 55°   Visibility: 1.6mi
Dew Point: 55°   Wind: 7mph
Humidity: 100%   Direction: 220°SW
Pressure: 30.06"   Gusts: NA
Location:  51.57°N, 4.41°E
Report Text: EHWO 250925Z AUTO 22006KT 2700 BR OVC003 13/13 Q1018 YLO
Loading
Personal Weather Stations






























Interactive Weather Map
Tropical Storm Tracking
New forecast layout! Learn more

10-Day Weather Forecast

Advertisements
Track Severe Weather on mobile